Data for 04/06/2015

Time Sea-Level Adjusted Pressure Absolute Pressure Temperature Relative Humidity Dew Point   
(mb) (inHg) (mb) (inHg) (C) (F) (%) (C) (F)
00:05 1010 29.83 839 24.78 -1.6 29.1 83 -4.2 24.4
00:10 1010 29.83 839 24.78 -1.7 29 83 -4.2 24.5
00:15 1009 29.8 839 24.78 -1.7 28.9 84 -4.1 24.6
00:20 1010 29.83 839 24.78 -1.8 28.8 83 -4.2 24.4
00:25 1010 29.83 839 24.78 -1.7 28.9 84 -4.1 24.5
00:30 1010 29.83 839 24.78 -1.8 28.8 84 -4.1 24.5
00:35 1010 29.83 839 24.78 -1.8 28.8 83 -4.3 24.3
00:40 1010 29.83 839 24.78 -1.8 28.8 83 -4.2 24.4
00:45 1009 29.8 839 24.78 -1.8 28.8 83 -4.2 24.4
00:50 1010 29.83 839 24.78 -1.8 28.7 83 -4.3 24.3
00:55 1009 29.8 839 24.78 -1.8 28.8 83 -4.3 24.3
01:00 1009 29.8 839 24.78 -1.8 28.8 84 -4.2 24.4
01:05 1009 29.8 839 24.78 -1.8 28.7 83 -4.3 24.3
01:10 1009 29.8 839 24.78 -1.9 28.7 84 -4.3 24.3
01:15 1010 29.83 839 24.78 -1.8 28.7 84 -4.3 24.3
01:20 1010 29.83 839 24.78 -1.8 28.7 83 -4.3 24.2
01:25 1010 29.83 839 24.78 -1.8 28.7 83 -4.3 24.3
01:30 1010 29.83 839 24.78 -1.8 28.7 83 -4.3 24.3
01:35 1010 29.83 839 24.78 -1.8 28.7 83 -4.4 24.1
01:40 1010 29.83 839 24.78 -1.8 28.8 83 -4.3 24.2
01:45 1010 29.83 839 24.78 -1.8 28.7 83 -4.3 24.2
01:50 1010 29.83 839 24.78 -1.8 28.7 83 -4.3 24.2
01:55 1009 29.8 839 24.78 -1.8 28.7 83 -4.3 24.2
02:00 1009 29.8 839 24.78 -1.8 28.8 82 -4.4 24.1
02:05 1009 29.8 839 24.78 -1.7 28.9 82 -4.4 24.1
02:10 1009 29.8 839 24.78 -1.7 28.9 82 -4.4 24
02:15 1009 29.8 839 24.78 -1.7 28.9 82 -4.4 24.1
02:20 1009 29.8 839 24.78 -1.8 28.8 83 -4.3 24.2
02:25 1009 29.8 839 24.78 -1.8 28.8 83 -4.4 24.1
02:30 1010 29.83 839 24.78 -1.8 28.8 82 -4.4 24.1
02:35 1009 29.8 839 24.78 -1.8 28.8 82 -4.5 24
02:40 1009 29.8 839 24.78 -1.7 28.9 82 -4.4 24.1
02:45 1009 29.8 839 24.78 -1.8 28.8 82 -4.4 24.1
02:50 1009 29.8 838 24.75 -1.8 28.8 82 -4.4 24.1
02:55 1009 29.8 838 24.75 -1.8 28.8 82 -4.4 24
03:00 1009 29.8 838 24.75 -1.7 28.9 81 -4.5 23.9
03:05 1009 29.8 838 24.75 -1.7 29 82 -4.4 24
03:10 1009 29.8 838 24.75 -1.6 29.1 81 -4.5 23.9
03:15 1009 29.8 839 24.78 -1.6 29.1 81 -4.4 24
03:20 1009 29.8 839 24.78 -1.6 29.1 81 -4.5 23.9
03:25 1009 29.8 839 24.78 -1.6 29.1 81 -4.5 23.9
03:30 1009 29.8 838 24.75 -1.6 29.1 81 -4.5 24
03:35 1009 29.8 838 24.75 -1.7 29 81 -4.5 24
03:40 1009 29.8 838 24.75 -1.7 29 81 -4.5 24
03:45 1009 29.8 838 24.75 -1.7 28.9 81 -4.5 24
03:50 1009 29.8 838 24.75 -1.7 29 82 -4.4 24.1
03:55 1009 29.8 838 24.75 -1.7 28.9 82 -4.3 24.2
04:00 1009 29.8 838 24.75 -1.8 28.8 82 -4.4 24.1
04:05 1009 29.8 838 24.75 -1.8 28.8 83 -4.3 24.2
04:10 1009 29.8 838 24.75 -1.8 28.8 82 -4.4 24.1
04:15 1009 29.8 838 24.75 -1.8 28.8 82 -4.4 24.1
04:20 1009 29.8 838 24.75 -1.8 28.8 83 -4.4 24.2
04:25 1009 29.8 838 24.75 -1.7 28.9 82 -4.4 24.2
04:30 1009 29.8 838 24.75 -1.7 28.9 82 -4.3 24.2
04:35 1009 29.8 838 24.75 -1.7 28.9 83 -4.3 24.3
04:40 1009 29.8 838 24.75 -1.8 28.8 83 -4.3 24.2
04:45 1009 29.8 838 24.75 -1.8 28.8 83 -4.3 24.3
04:50 1009 29.8 838 24.75 -1.8 28.8 83 -4.3 24.3
04:55 1009 29.8 838 24.75 -1.8 28.8 83 -4.3 24.3
05:00 1009 29.8 838 24.75 -1.8 28.8 83 -4.3 24.3
05:05 1009 29.8 838 24.75 -1.8 28.8 83 -4.3 24.3
05:10 1009 29.8 838 24.75 -1.8 28.8 83 -4.2 24.4
05:15 1009 29.8 838 24.75 -1.8 28.7 83 -4.3 24.2
05:20 1009 29.8 838 24.75 -1.8 28.8 83 -4.3 24.2
05:25 1008 29.77 838 24.75 -1.8 28.8 83 -4.3 24.2
05:30 1008 29.77 838 24.75 -1.7 28.9 82 -4.4 24.1
05:35 1008 29.77 838 24.75 -1.6 29 82 -4.4 24.1
05:40 1009 29.8 838 24.75 -1.6 29.1 81 -4.4 24.1
05:45 1009 29.8 838 24.75 -1.6 29.1 81 -4.4 24.1
05:50 1009 29.8 838 24.75 -1.6 29.2 81 -4.4 24.1
05:55 1009 29.8 838 24.75 -1.6 29.2 81 -4.4 24.1
06:00 1009 29.8 838 24.75 -1.6 29.2 81 -4.4 24.1
06:05 1009 29.8 838 24.75 -1.6 29.2 81 -4.4 24.1
06:10 1009 29.8 838 24.75 -1.6 29.1 82 -4.3 24.2
06:15 1009 29.8 839 24.78 -1.6 29.1 82 -4.2 24.4
06:20 1009 29.8 839 24.78 -1.6 29.1 82 -4.3 24.3
06:25 1009 29.8 838 24.75 -1.6 29.1 82 -4.2 24.4
06:30 1009 29.8 839 24.78 -1.6 29.2 83 -4.2 24.5
06:35 1009 29.8 838 24.75 -1.6 29.1 83 -4.1 24.6
06:40 1009 29.8 839 24.78 -1.6 29.1 82 -4.2 24.4
06:45 1010 29.83 839 24.78 -1.5 29.2 83 -4.1 24.6
06:50 1010 29.83 839 24.78 -1.5 29.2 83 -4.1 24.5
06:55 1010 29.83 839 24.78 -1.6 29.1 83 -4 24.7
07:00 1010 29.83 839 24.78 -1.6 29.1 83 -4.1 24.7
07:05 1010 29.83 839 24.78 -1.6 29.1 84 -4 24.8
07:10 1010 29.83 839 24.78 -1.7 29 85 -3.9 24.9
07:15 1010 29.83 839 24.78 -1.7 28.9 84 -4 24.8
07:20 1010 29.83 839 24.78 -1.7 29 84 -4 24.9
07:25 1010 29.83 839 24.78 -1.6 29 85 -3.9 25
07:30 1010 29.83 839 24.78 -1.6 29 85 -3.8 25.1
07:35 1010 29.83 839 24.78 -1.6 29.1 85 -3.8 25.1
07:40 1010 29.83 839 24.78 -1.6 29.1 85 -3.8 25.1
07:45 1010 29.83 839 24.78 -1.6 29.1 85 -3.7 25.3
07:50 1010 29.83 839 24.78 -1.7 29 86 -3.7 25.3
07:55 1010 29.83 839 24.78 -1.7 29 86 -3.8 25.2
08:00 1010 29.83 839 24.78 -1.6 29.1 86 -3.7 25.4
08:05 1010 29.83 839 24.78 -1.5 29.2 85 -3.8 25.2
08:10 1010 29.83 839 24.78 -1.5 29.2 84 -3.9 25.1
08:15 1010 29.83 839 24.78 -1.5 29.4 84 -3.8 25.1
08:20 1010 29.83 839 24.78 -1.4 29.4 84 -3.8 25.1
08:25 1010 29.83 839 24.78 -1.3 29.6 83 -3.8 25.2
08:30 1010 29.83 839 24.78 -1.3 29.7 84 -3.7 25.3
08:35 1010 29.83 839 24.78 -1.2 29.8 84 -3.7 25.4
08:40 1010 29.83 839 24.78 -1.2 29.8 83 -3.7 25.4
08:45 1010 29.83 839 24.78 -1.1 30 82 -3.7 25.3
08:50 1010 29.83 839 24.78 -0.9 30.3 81 -3.7 25.3
08:55 1010 29.83 839 24.78 -0.9 30.4 82 -3.7 25.4
09:00 1010 29.83 839 24.78 -0.8 30.5 81 -3.7 25.4
09:05 1010 29.83 839 24.78 -0.7 30.7 81 -3.6 25.5
09:10 1010 29.83 839 24.78 -0.6 30.9 80 -3.6 25.5
09:15 1010 29.83 839 24.78 -0.4 31.3 78 -3.7 25.3
09:20 1010 29.83 839 24.78 -0.3 31.5 79 -3.5 25.7
09:25 1010 29.83 839 24.78 -0.1 31.8 79 -3.3 26
09:30 1010 29.83 839 24.78 -0 32 78 -3.5 25.8
09:35 1010 29.83 839 24.78 0 32 80 -3.1 26.5
09:40 1010 29.83 839 24.78 -0.1 31.7 79 -3.4 25.9
09:45 1010 29.83 839 24.78 -0.1 31.9 79 -3.2 26.2
09:50 1010 29.83 839 24.78 0.3 32.6 76 -3.4 25.9
09:55 1010 29.83 839 24.78 0.2 32.4 80 -2.9 26.8
10:00 1010 29.83 839 24.78 0.4 32.7 77 -3.2 26.2
10:05 1010 29.83 839 24.78 0.4 32.7 77 -3.1 26.4
10:10 1010 29.83 839 24.78 0.6 33.2 77 -3 26.6
10:15 1010 29.83 839 24.78 0.9 33.6 77 -2.8 27
10:20 1010 29.83 839 24.78 0.9 33.6 76 -2.9 26.8
10:25 1010 29.83 839 24.78 0.9 33.6 76 -3 26.7
10:30 1010 29.83 839 24.78 1.4 34.5 73 -2.9 26.8
10:35 1010 29.83 839 24.78 1.2 34.2 75 -2.8 27
10:40 1010 29.83 839 24.78 1.6 34.8 76 -2.3 27.9
10:45 1010 29.83 839 24.78 2.1 35.9 71 -2.6 27.3
10:50 1010 29.83 839 24.78 2 35.6 73 -2.4 27.7
10:55 1010 29.83 839 24.78 2 35.6 73 -2.4 27.7
11:00 1010 29.83 839 24.78 1.6 34.9 74 -2.6 27.4
11:05 1010 29.83 839 24.78 1.5 34.8 75 -2.4 27.7
11:10 1010 29.83 839 24.78 1.4 34.5 77 -2.2 28
11:15 1010 29.83 839 24.78 1.6 34.9 74 -2.5 27.4
11:20 1010 29.83 839 24.78 1.4 34.5 76 -2.4 27.6
11:25 1010 29.83 839 24.78 1.3 34.4 75 -2.7 27.2
11:30 1010 29.83 839 24.78 1.2 34.1 77 -2.4 27.6
11:35 1010 29.83 839 24.78 1.3 34.3 75 -2.6 27.3
11:40 1010 29.83 839 24.78 1.1 34.1 77 -2.4 27.7
11:45 1010 29.83 839 24.78 1.4 34.5 77 -2.3 27.9
11:50 1010 29.83 839 24.78 1.4 34.4 78 -2.1 28.2
11:55 1010 29.83 839 24.78 1.1 34 78 -2.3 27.8
12:00 1010 29.83 839 24.78 1.1 34 78 -2.3 27.9
12:05 1010 29.83 839 24.78 1.1 34 78 -2.4 27.8
12:10 1010 29.83 839 24.78 1 33.8 78 -2.4 27.7
12:15 1010 29.83 839 24.78 1 33.8 77 -2.5 27.5
12:20 1010 29.83 839 24.78 0.9 33.6 78 -2.5 27.5
12:25 1010 29.83 839 24.78 0.8 33.5 81 -2.1 28.2
12:30 1010 29.83 839 24.78 0.9 33.6 81 -2 28.4
12:35 1010 29.83 839 24.78 0.6 33.1 82 -2.1 28.2
12:40 1010 29.83 839 24.78 0.7 33.3 80 -2.3 27.8
12:45 1010 29.83 839 24.78 0.8 33.4 80 -2.3 27.9
12:50 1010 29.83 839 24.78 0.8 33.4 81 -2.1 28.3
12:55 1010 29.83 839 24.78 0.7 33.2 82 -2 28.4
13:00 1010 29.83 839 24.78 0.6 33.1 84 -1.9 28.6
13:05 1010 29.83 839 24.78 0.3 32.5 83 -2.2 28
13:10 1010 29.83 839 24.78 0.1 32.3 85 -2 28.4
13:15 1010 29.83 839 24.78 0 32 86 -2 28.4
13:20 1010 29.83 839 24.78 0.1 32.2 88 -1.7 29
13:25 1010 29.83 839 24.78 0.2 32.4 86 -1.9 28.6
13:30 1010 29.83 839 24.78 0.1 32.2 85 -2.1 28.1
13:35 1010 29.83 839 24.78 0.2 32.3 85 -2.1 28.2
13:40 1010 29.83 839 24.78 0.4 32.7 84 -2 28.4
13:45 1010 29.83 840 24.81 0.6 33 84 -1.8 28.8
13:50 1010 29.83 840 24.81 0.6 33.1 86 -1.4 29.4
13:55 1010 29.83 840 24.81 0.4 32.8 88 -1.3 29.7
14:00 1010 29.83 839 24.78 0.3 32.6 88 -1.5 29.4
14:05 1010 29.83 839 24.78 0.3 32.5 89 -1.3 29.6
14:10 1010 29.83 839 24.78 0.2 32.4 90 -1.2 29.8
14:15 1010 29.83 839 24.78 0.2 32.3 90 -1.2 29.8
14:20 1010 29.83 840 24.81 0.2 32.3 88 -1.5 29.3
14:25 1010 29.83 840 24.81 -0 32 90 -1.5 29.2
14:30 1011 29.85 840 24.81 -0 31.9 90 -1.4 29.4
14:35 1011 29.85 840 24.81 0 32 91 -1.3 29.7
14:40 1011 29.85 840 24.81 0 32 92 -1.2 29.9
14:45 1010 29.83 840 24.81 0 32 92 -1.1 30.1
14:50 1010 29.83 840 24.81 0.1 32.3 93 -0.9 30.4
14:55 1010 29.83 840 24.81 0.3 32.5 93 -0.8 30.6
15:00 1010 29.83 840 24.81 0.3 32.5 92 -0.8 30.5
15:05 1010 29.83 839 24.78 0.2 32.4 93 -0.8 30.5
15:10 1010 29.83 839 24.78 0.3 32.5 92 -0.8 30.5
15:15 1010 29.83 839 24.78 0.2 32.4 92 -0.9 30.4
15:20 1010 29.83 839 24.78 0.2 32.3 93 -0.8 30.5
15:25 1010 29.83 839 24.78 0.3 32.5 93 -0.8 30.6
15:30 1010 29.83 839 24.78 0.3 32.6 92 -0.8 30.6
15:35 1010 29.83 839 24.78 0.5 32.9 91 -0.8 30.6
15:40 1010 29.83 839 24.78 0.5 33 90 -0.9 30.4
15:45 1010 29.83 839 24.78 0.7 33.3 89 -1 30.3
15:50 1010 29.83 839 24.78 0.8 33.5 88 -0.9 30.4
15:55 1010 29.83 839 24.78 1.1 33.9 88 -0.7 30.7
16:00 1010 29.83 839 24.78 1.1 34 86 -0.9 30.3
16:05 1010 29.83 839 24.78 1.3 34.3 86 -0.8 30.6
16:10 1010 29.83 839 24.78 1.3 34.4 87 -0.6 30.9
16:15 1010 29.83 839 24.78 1.5 34.7 87 -0.4 31.2
16:20 1010 29.83 839 24.78 1.6 34.8 87 -0.5 31.2
16:25 1010 29.83 839 24.78 1.6 34.8 85 -0.6 30.9
16:30 1010 29.83 839 24.78 1.7 35 86 -0.4 31.3
16:35 1010 29.83 839 24.78 1.9 35.3 83 -0.7 30.8
16:40 1010 29.83 840 24.81 2.2 35.9 83 -0.4 31.3
16:45 1010 29.83 839 24.78 2.9 37.3 78 -0.5 31
16:50 1010 29.83 840 24.81 2.8 37.1 77 -0.8 30.6
16:55 1010 29.83 840 24.81 2.6 36.7 77 -1 30.2
17:00 1010 29.83 840 24.81 2.6 36.7 79 -0.7 30.8
17:05 1010 29.83 840 24.81 2.6 36.7 77 -1 30.1
17:10 1010 29.83 840 24.81 2.9 37.2 78 -0.5 31.1
17:15 1011 29.85 840 24.81 3.1 37.6 78 -0.4 31.3
17:20 1011 29.85 840 24.81 3.1 37.5 78 -0.5 31.2
17:25 1011 29.85 840 24.81 3 37.5 77 -0.7 30.8
17:30 1011 29.85 840 24.81 2.8 37 77 -0.8 30.5
17:35 1011 29.85 840 24.81 2.6 36.6 77 -1.1 30.1
17:40 1011 29.85 840 24.81 2.4 36.4 79 -0.8 30.6
17:45 1011 29.85 840 24.81 2.6 36.7 79 -0.7 30.8
17:50 1011 29.85 840 24.81 2.8 37.1 78 -0.7 30.7
17:55 1011 29.85 840 24.81 2.6 36.7 78 -0.8 30.5
18:00 1011 29.85 840 24.81 2.7 36.8 78 -0.8 30.5
18:05 1011 29.85 840 24.81 2.6 36.7 78 -0.9 30.4
18:10 1011 29.85 840 24.81 2.6 36.7 78 -0.8 30.5
18:15 1011 29.85 840 24.81 2.5 36.6 79 -0.8 30.5
18:20 1011 29.85 840 24.81 2.6 36.7 79 -0.6 30.9
18:25 1011 29.85 841 24.83 2.8 37 79 -0.5 31.2
18:30 1011 29.85 841 24.83 2.9 37.2 77 -0.7 30.7
18:35 1012 29.88 841 24.83 3 37.3 79 -0.4 31.3
18:40 1012 29.88 841 24.83 2.9 37.2 82 0.1 32.2
18:45 1012 29.88 841 24.83 2.7 36.8 84 0.3 32.5
18:50 1012 29.88 841 24.83 2.5 36.5 86 0.3 32.5
18:55 1012 29.88 841 24.83 2.4 36.2 87 0.3 32.6
19:00 1012 29.88 841 24.83 2.1 35.8 86 -0.1 31.9
19:05 1012 29.88 841 24.83 1 33.8 89 -0.6 30.9
19:10 1012 29.88 841 24.83 0.4 32.7 92 -0.8 30.5
19:15 1012 29.88 842 24.86 0.2 32.4 93 -0.8 30.5
19:20 1012 29.88 842 24.86 0.1 32.2 93 -0.9 30.4
19:25 1013 29.91 842 24.86 0 32.1 93 -0.9 30.4
19:30 1013 29.91 842 24.86 -0 32 94 -0.9 30.4
19:35 1013 29.91 842 24.86 -0.1 31.9 94 -0.9 30.3
19:40 1013 29.91 842 24.86 -0.1 31.8 94 -0.9 30.3
19:45 1013 29.91 843 24.89 -0.1 31.8 94 -1 30.3
19:50 1014 29.94 843 24.89 -0.2 31.7 95 -1 30.3
19:55 1014 29.94 843 24.89 -0.2 31.6 95 -1 30.3
20:00 1014 29.94 843 24.89 -0.2 31.6 95 -1 30.3
20:05 1014 29.94 843 24.89 -0.2 31.6 95 -1 30.3
20:10 1014 29.94 843 24.89 -0.2 31.6 95 -1 30.2
20:15 1014 29.94 843 24.89 -0.3 31.5 95 -1 30.2
20:20 1014 29.94 843 24.89 -0.4 31.4 95 -1.1 30
20:25 1014 29.94 843 24.89 -0.4 31.4 95 -1.1 30
20:30 1014 29.94 844 24.92 -0.4 31.4 95 -1.1 30
20:35 1014 29.94 844 24.92 -0.4 31.3 95 -1.1 30
20:40 1014 29.94 843 24.89 -0.4 31.3 95 -1.1 30
20:45 1014 29.94 843 24.89 -0.4 31.2 95 -1.1 29.9
20:50 1014 29.94 844 24.92 -0.5 31.2 95 -1.2 29.9
20:55 1014 29.94 844 24.92 -0.5 31.1 95 -1.2 29.8
21:00 1014 29.94 844 24.92 -0.5 31 95 -1.2 29.8
21:05 1014 29.94 844 24.92 -0.6 31 95 -1.3 29.7
21:10 1014 29.94 844 24.92 -0.6 30.9 95 -1.3 29.6
21:15 1014 29.94 844 24.92 -0.7 30.8 95 -1.3 29.6
21:20 1014 29.94 844 24.92 -0.6 31 95 -1.2 29.8
21:25 1014 29.94 844 24.92 -0.5 31.1 95 -1.2 29.9
21:30 1014 29.94 844 24.92 -0.5 31.2 95 -1.1 30
21:35 1014 29.94 844 24.92 -0.4 31.2 95 -1.1 30
21:40 1014 29.94 844 24.92 -0.5 31.1 95 -1.2 29.8
21:45 1015 29.97 844 24.92 -0.5 31.1 95 -1.2 29.8
21:50 1015 29.97 844 24.92 -0.5 31.1 95 -1.2 29.8
21:55 1015 29.97 844 24.92 -0.6 31 95 -1.3 29.7
22:00 1015 29.97 844 24.92 -0.6 30.9 95 -1.3 29.7
22:05 1015 29.97 844 24.92 -0.6 31 95 -1.3 29.7
22:10 1015 29.97 844 24.92 -0.5 31.1 95 -1.2 29.8
22:15 1015 29.97 844 24.92 -0.5 31.1 95 -1.2 29.8
22:20 1015 29.97 844 24.92 -0.5 31.1 95 -1.2 29.8
22:25 1015 29.97 844 24.92 -0.5 31.1 95 -1.3 29.7
22:30 1015 29.97 844 24.92 -0.5 31.1 95 -1.2 29.8
22:35 1015 29.97 844 24.92 -0.6 30.9 95 -1.4 29.6
22:40 1015 29.97 844 24.92 -0.7 30.8 95 -1.4 29.4
22:45 1015 29.97 844 24.92 -0.8 30.5 95 -1.5 29.3
22:50 1015 29.97 844 24.92 -0.8 30.6 95 -1.5 29.3
22:55 1015 29.97 844 24.92 -0.9 30.4 95 -1.7 29
23:00 1015 29.97 844 24.92 -1 30.2 95 -1.7 29
23:05 1015 29.97 844 24.92 -1 30.3 95 -1.7 29
23:10 1015 29.97 844 24.92 -0.9 30.4 95 -1.6 29.1
23:15 1015 29.97 844 24.92 -0.9 30.3 95 -1.7 28.9
23:20 1015 29.97 844 24.92 -0.9 30.3 94 -1.7 28.9
23:25 1015 29.97 844 24.92 -0.9 30.3 94 -1.8 28.8
23:30 1015 29.97 844 24.92 -1 30.2 94 -1.9 28.6
23:35 1015 29.97 844 24.92 -1.1 30 94 -2 28.4
23:40 1015 29.97 844 24.92 -1.1 29.9 94 -2.1 28.3
23:45 1015 29.97 844 24.92 -1.2 29.9 93 -2.1 28.1
23:50 1015 29.97 844 24.92 -1.3 29.7 93 -2.2 28
23:55 1015 29.97 844 24.92 -1.3 29.7 93 -2.3 27.8
24:00 1015 29.97 844 24.92 -1.4 29.4 93 -2.4 27.6